Sinclair, Maine
Current Conditions -  °F | °C
As of 7:36 PM on Sunday 21 Dec 2014 (Local Time) from KFVE Reporting Station
Overcast Overcast  
Wind Chill: 18°   Ceiling: 1300
Heat Index: 18°   Visibility: 10mi
Dew Point: 16°   Wind: 0mph
Humidity: 92%   Direction: NA
Pressure: 30.32"   Gusts: NA
Location:  47.17°N, 68.27°W
Report Text: KFVE 220036Z AUTO 00000KT 10SM FEW007 OVC013 M08/M09 A3032 RMK AO2 T10781089
Loading
Personal Weather Stations






























Interactive Weather Map New forecast layout! Learn more

10-Day Weather Forecast

Advertisements
Track Severe Weather on mobile